Time;durP1;ratioP1;P1;durP2;ratioP2;P2;SDS_P1;SDS_P2;PMS_P1;PMS_P2;Temp;Humidity;BMP_temperature;BMP_pressure;BME280_temperature;BME280_humidity;BME280_pressure;Samples;Min_cycle;Max_cycle;Signal;HPM_P1;HPM_P2
2022/06/30 00:00:25;;;;;;;;;;;17.00;60.20;;;;;;4092429;28;19914;-84
2022/06/30 00:02:46;;;;;;;;;;;17.00;60.20;;;;;;4106136;28;19910;-84
2022/06/30 00:05:07;;;;;;;;;;;16.90;60.00;;;;;;4113113;28;19949;-84
2022/06/30 00:07:28;;;;;;;;;;;16.90;60.00;;;;;;4112762;28;20343;-84
2022/06/30 00:09:49;;;;;;;;;;;16.90;60.10;;;;;;4109576;28;20445;-84
2022/06/30 00:12:10;;;;;;;;;;;16.80;60.20;;;;;;4112413;28;19915;-84
2022/06/30 00:14:31;;;;;;;;;;;16.80;60.50;;;;;;4111121;28;19956;-83
2022/06/30 00:16:52;;;;;;;;;;;16.80;60.60;;;;;;4115354;28;19910;-84
2022/06/30 00:19:12;;;;;;;;;;;16.80;60.60;;;;;;4102800;28;19937;-84
2022/06/30 00:21:33;;;;;;;;;;;16.70;60.50;;;;;;4102089;28;19964;-84
2022/06/30 00:23:54;;;;;;;;;;;16.70;60.50;;;;;;4114115;28;19925;-84
2022/06/30 00:26:15;;;;;;;;;;;16.70;60.60;;;;;;4119779;28;19914;-83
2022/06/30 00:28:36;;;;;;;;;;;16.60;60.60;;;;;;4119891;28;19929;-83
2022/06/30 00:30:57;;;;;;;;;;;16.60;60.60;;;;;;4098940;28;19921;-83
2022/06/30 00:33:18;;;;;;;;;;;16.60;60.60;;;;;;4101823;28;19981;-84
2022/06/30 00:35:39;;;;;;;;;;;16.60;60.70;;;;;;4096279;28;19915;-83
2022/06/30 00:38:00;;;;;;;;;;;16.50;60.60;;;;;;4115252;28;19922;-83
2022/06/30 00:40:21;;;;;;;;;;;16.50;60.60;;;;;;4123481;28;20032;-84
2022/06/30 00:42:42;;;;;;;;;;;16.50;60.40;;;;;;4117259;28;19910;-84
2022/06/30 00:45:03;;;;;;;;;;;16.40;60.30;;;;;;4104874;28;19911;-83
2022/06/30 00:47:25;;;;;;;;;;;16.40;60.30;;;;;;4104168;28;19911;-83
2022/06/30 00:49:46;;;;;;;;;;;16.40;60.50;;;;;;4123153;28;20005;-83
2022/06/30 00:52:09;;;;;;;;;;;16.40;60.70;;;;;;4124618;28;19906;-83
2022/06/30 00:54:30;;;;;;;;;;;16.30;60.50;;;;;;4112454;28;20186;-83
2022/06/30 00:56:52;;;;;;;;;;;16.30;60.60;;;;;;4098609;28;19910;-83
2022/06/30 00:59:14;;;;;;;;;;;16.30;60.60;;;;;;4121678;28;19926;-84
2022/06/30 01:01:36;;;;;;;;;;;16.30;60.80;;;;;;4109655;28;20098;-83
2022/06/30 01:03:58;;;;;;;;;;;16.20;61.60;;;;;;4120132;28;19924;-83
2022/06/30 01:06:20;;;;;;;;;;;16.20;60.90;;;;;;4109078;28;19918;-83
2022/06/30 01:08:40;;;;;;;;;;;16.20;61.10;;;;;;4108764;28;19914;-84
2022/06/30 01:13:42;;;;;;;;;;;16.20;61.30;;;;;;4116224;28;19914;-84
2022/06/30 01:16:03;;;;;;;;;;;16.20;61.30;;;;;;4118584;28;19981;-83
2022/06/30 01:18:24;;;;;;;;;;;16.10;61.50;;;;;;4121557;28;20309;-84
2022/06/30 01:20:45;;;;;;;;;;;16.10;61.60;;;;;;4123855;28;19969;-83
2022/06/30 01:23:06;;;;;;;;;;;16.10;61.60;;;;;;4121545;28;19962;-84
2022/06/30 01:25:27;;;;;;;;;;;16.10;61.70;;;;;;4120650;28;19918;-83
2022/06/30 01:27:47;;;;;;;;;;;16.10;61.70;;;;;;4121928;28;19920;-83
2022/06/30 01:30:09;;;;;;;;;;;16.10;61.90;;;;;;4121808;28;19921;-83
2022/06/30 01:32:29;;;;;;;;;;;16.10;61.90;;;;;;4108627;28;19954;-84
2022/06/30 01:34:50;;;;;;;;;;;16.10;62.00;;;;;;4099166;28;19946;-83
2022/06/30 01:37:11;;;;;;;;;;;16.10;61.90;;;;;;4106109;28;20453;-83
2022/06/30 01:39:32;;;;;;;;;;;16.00;61.80;;;;;;4106579;28;19974;-82
2022/06/30 01:41:53;;;;;;;;;;;16.00;61.90;;;;;;4111444;28;19910;-82
2022/06/30 01:44:14;;;;;;;;;;;16.00;62.00;;;;;;4122267;28;19937;-83
2022/06/30 01:46:35;;;;;;;;;;;16.00;62.10;;;;;;4119007;28;19921;-83
2022/06/30 01:48:58;;;;;;;;;;;16.00;62.30;;;;;;4121322;28;20001;-83
2022/06/30 01:51:19;;;;;;;;;;;16.00;62.30;;;;;;4112606;28;20062;-83
2022/06/30 01:53:39;;;;;;;;;;;16.00;62.20;;;;;;4122607;28;20207;-83
2022/06/30 01:56:00;;;;;;;;;;;15.90;62.30;;;;;;4122529;28;19927;-82
2022/06/30 01:58:21;;;;;;;;;;;15.90;62.40;;;;;;4105346;28;19938;-82
2022/06/30 02:00:42;;;;;;;;;;;15.90;62.40;;;;;;4118746;28;19910;-82
2022/06/30 02:03:03;;;;;;;;;;;15.90;62.50;;;;;;4118353;28;19910;-82
2022/06/30 02:05:24;;;;;;;;;;;15.90;62.60;;;;;;4120439;28;19945;-82
2022/06/30 02:07:45;;;;;;;;;;;15.90;62.70;;;;;;4118447;28;19933;-82
2022/06/30 02:10:07;;;;;;;;;;;15.90;62.70;;;;;;4103975;28;19925;-83
2022/06/30 02:12:47;;;;;;;;;;;15.90;63.40;;;;;;4119020;28;19945;-83
2022/06/30 02:15:08;;;;;;;;;;;15.90;62.70;;;;;;4122368;28;20318;-83
2022/06/30 02:17:29;;;;;;;;;;;15.90;62.90;;;;;;4119450;28;19994;-83
2022/06/30 02:19:50;;;;;;;;;;;15.80;63.00;;;;;;4100365;28;19960;-83
2022/06/30 02:22:11;;;;;;;;;;;15.90;63.00;;;;;;4106008;28;20050;-83
2022/06/30 02:24:32;;;;;;;;;;;15.90;63.00;;;;;;4122982;28;19917;-82
2022/06/30 02:26:53;;;;;;;;;;;15.80;62.70;;;;;;4108093;28;20297;-81
2022/06/30 02:29:13;;;;;;;;;;;15.90;63.10;;;;;;4117709;28;19966;-82
2022/06/30 02:31:34;;;;;;;;;;;15.90;63.70;;;;;;4121200;28;19914;-82
2022/06/30 02:33:55;;;;;;;;;;;15.80;63.70;;;;;;4113442;28;19993;-82
2022/06/30 02:36:16;;;;;;;;;;;15.80;63.50;;;;;;4115570;28;19913;-83
2022/06/30 02:38:37;;;;;;;;;;;15.90;63.60;;;;;;4108783;28;19973;-82
2022/06/30 02:40:58;;;;;;;;;;;15.80;63.70;;;;;;4114970;28;19918;-81
2022/06/30 02:43:19;;;;;;;;;;;15.80;63.80;;;;;;4120679;28;19910;-80
2022/06/30 02:45:40;;;;;;;;;;;15.90;64.00;;;;;;4097893;28;20197;-82
2022/06/30 02:48:00;;;;;;;;;;;15.90;64.90;;;;;;4125458;28;19913;-82
2022/06/30 02:50:21;;;;;;;;;;;15.90;65.40;;;;;;4112699;28;19918;-81
2022/06/30 02:52:42;;;;;;;;;;;15.90;65.10;;;;;;4109335;28;19949;-82
2022/06/30 02:55:04;;;;;;;;;;;15.90;64.90;;;;;;4098011;28;19917;-82
2022/06/30 02:57:25;;;;;;;;;;;15.90;65.00;;;;;;4106199;28;20020;-82
2022/06/30 02:59:46;;;;;;;;;;;15.90;65.10;;;;;;4112253;28;19918;-82
2022/06/30 03:02:09;;;;;;;;;;;15.90;65.10;;;;;;4105354;28;19916;-82
2022/06/30 03:04:30;;;;;;;;;;;15.90;65.40;;;;;;4112293;28;19913;-81
2022/06/30 03:06:51;;;;;;;;;;;15.90;65.30;;;;;;4115400;28;20012;-81
2022/06/30 03:09:12;;;;;;;;;;;15.90;65.40;;;;;;4110375;28;19917;-80
2022/06/30 03:11:32;;;;;;;;;;;15.90;65.40;;;;;;4120753;28;19968;-81
2022/06/30 03:13:54;;;;;;;;;;;15.90;65.30;;;;;;4116223;28;20012;-80
2022/06/30 03:16:14;;;;;;;;;;;15.90;65.40;;;;;;4125223;28;20111;-83
2022/06/30 03:18:35;;;;;;;;;;;15.90;65.40;;;;;;4126979;28;19949;-81
2022/06/30 03:20:59;;;;;;;;;;;15.90;65.50;;;;;;4124345;28;19918;-81
2022/06/30 03:23:19;;;;;;;;;;;15.90;65.80;;;;;;4119103;28;19925;-82
2022/06/30 03:25:40;;;;;;;;;;;15.90;65.80;;;;;;4123009;28;19918;-81
2022/06/30 03:28:02;;;;;;;;;;;15.90;65.80;;;;;;4124528;28;19996;-83
2022/06/30 03:30:23;;;;;;;;;;;15.90;66.30;;;;;;4121979;28;19978;-82
2022/06/30 03:32:44;;;;;;;;;;;15.90;66.40;;;;;;4121041;28;19933;-82
2022/06/30 03:35:05;;;;;;;;;;;15.90;66.40;;;;;;4118492;28;19909;-81
2022/06/30 03:37:26;;;;;;;;;;;15.90;66.10;;;;;;4122916;28;19985;-82
2022/06/30 03:39:47;;;;;;;;;;;15.90;65.90;;;;;;4102167;28;19922;-81
2022/06/30 03:42:08;;;;;;;;;;;15.90;65.80;;;;;;4122674;28;19916;-83
2022/06/30 03:44:29;;;;;;;;;;;15.90;65.60;;;;;;4122757;28;19910;-81
2022/06/30 03:46:50;;;;;;;;;;;15.90;65.80;;;;;;4106215;28;19915;-82
2022/06/30 03:49:10;;;;;;;;;;;15.90;66.00;;;;;;4108632;28;19922;-81
2022/06/30 03:51:31;;;;;;;;;;;15.90;66.50;;;;;;4120505;28;20524;-81
2022/06/30 03:53:56;;;;;;;;;;;15.90;67.20;;;;;;4121648;28;19941;-82
2022/06/30 03:56:17;;;;;;;;;;;16.00;67.60;;;;;;4128019;28;19934;-81
2022/06/30 03:58:38;;;;;;;;;;;16.00;67.90;;;;;;4119686;28;19918;-82
2022/06/30 04:00:58;;;;;;;;;;;16.10;68.90;;;;;;4106464;28;19921;-82
2022/06/30 04:03:19;;;;;;;;;;;16.20;70.30;;;;;;4110181;28;19917;-82
2022/06/30 04:05:40;;;;;;;;;;;16.30;70.90;;;;;;4111091;28;19961;-82
2022/06/30 04:08:01;;;;;;;;;;;16.40;70.20;;;;;;4112137;28;19988;-80
2022/06/30 04:10:22;;;;;;;;;;;16.50;70.20;;;;;;4109961;28;19929;-82
2022/06/30 04:12:43;;;;;;;;;;;16.50;71.10;;;;;;4099421;28;19914;-82
2022/06/30 04:15:04;;;;;;;;;;;16.60;71.20;;;;;;4114678;28;19989;-82
2022/06/30 04:17:25;;;;;;;;;;;16.70;71.90;;;;;;4104425;28;19957;-82
2022/06/30 04:19:46;;;;;;;;;;;16.80;70.80;;;;;;4098630;28;20375;-81
2022/06/30 04:22:07;;;;;;;;;;;16.90;69.80;;;;;;4111627;28;20272;-82
2022/06/30 04:24:28;;;;;;;;;;;17.00;68.40;;;;;;4099424;28;19911;-82
2022/06/30 04:26:49;;;;;;;;;;;17.00;67.50;;;;;;4091374;28;19970;-82
2022/06/30 04:29:10;;;;;;;;;;;17.10;67.70;;;;;;4108335;28;19933;-82
2022/06/30 04:34:10;;;;;;;;;;;17.20;69.30;;;;;;4113914;28;19918;-83
2022/06/30 04:36:31;;;;;;;;;;;17.30;71.20;;;;;;4113608;28;19920;-82
2022/06/30 04:38:51;;;;;;;;;;;17.40;74.10;;;;;;4095595;28;20458;-83
2022/06/30 04:41:24;;;;;;;;;;;17.40;75.60;;;;;;4106048;28;19914;-82
2022/06/30 04:43:45;;;;;;;;;;;17.50;75.70;;;;;;4108711;28;19913;-83
2022/06/30 04:46:06;;;;;;;;;;;17.60;76.00;;;;;;4116402;28;19917;-83
2022/06/30 04:48:27;;;;;;;;;;;17.60;76.20;;;;;;4107993;28;19925;-84
2022/06/30 04:50:51;;;;;;;;;;;17.70;76.40;;;;;;4086821;28;19918;-83
2022/06/30 04:53:12;;;;;;;;;;;17.70;76.40;;;;;;4114144;28;20000;-83
2022/06/30 04:55:34;;;;;;;;;;;17.80;76.40;;;;;;4113097;28;20017;-83
2022/06/30 04:57:55;;;;;;;;;;;18.00;76.00;;;;;;4107896;28;19917;-84
2022/06/30 05:00:18;;;;;;;;;;;18.00;76.40;;;;;;4115873;28;20294;-83
2022/06/30 05:02:39;;;;;;;;;;;18.00;76.20;;;;;;4112535;28;19910;-83
2022/06/30 05:05:00;;;;;;;;;;;18.10;76.00;;;;;;4099190;28;20025;-84
2022/06/30 05:07:21;;;;;;;;;;;18.10;75.70;;;;;;4114665;28;19961;-84
2022/06/30 05:09:42;;;;;;;;;;;18.20;75.80;;;;;;4116260;28;20290;-84
2022/06/30 05:12:03;;;;;;;;;;;18.30;75.80;;;;;;4088378;28;20038;-85
2022/06/30 05:14:24;;;;;;;;;;;18.30;76.00;;;;;;4113010;28;22616;-85
2022/06/30 05:16:46;;;;;;;;;;;18.50;76.10;;;;;;4111598;28;20621;-84
2022/06/30 05:19:07;;;;;;;;;;;18.50;75.80;;;;;;4092687;28;19915;-84
2022/06/30 05:21:27;;;;;;;;;;;18.60;75.40;;;;;;4112870;28;19910;-85
2022/06/30 05:26:29;;;;;;;;;;;18.70;75.10;;;;;;4085147;28;19910;-84
2022/06/30 05:28:50;;;;;;;;;;;18.80;75.00;;;;;;4115608;28;19949;-84
2022/06/30 05:31:12;;;;;;;;;;;18.90;74.50;;;;;;4108111;28;19944;-84
2022/06/30 05:33:33;;;;;;;;;;;18.90;73.60;;;;;;4118171;28;19914;-85
2022/06/30 05:35:54;;;;;;;;;;;19.00;73.80;;;;;;4111799;28;20012;-85
2022/06/30 05:38:16;;;;;;;;;;;19.00;73.00;;;;;;4109527;28;19918;-82
2022/06/30 05:40:36;;;;;;;;;;;19.10;73.20;;;;;;4107357;28;19917;-85
2022/06/30 05:42:57;;;;;;;;;;;19.20;72.40;;;;;;4098979;28;19933;-83
2022/06/30 05:45:18;;;;;;;;;;;19.20;72.20;;;;;;4121575;28;19910;-84
2022/06/30 05:47:50;;;;;;;;;;;19.30;72.30;;;;;;4093267;28;19910;-84
2022/06/30 05:50:11;;;;;;;;;;;19.30;71.90;;;;;;4114349;28;20366;-84
2022/06/30 05:52:32;;;;;;;;;;;19.40;71.60;;;;;;4095379;28;19911;-85
2022/06/30 05:54:53;;;;;;;;;;;19.40;70.60;;;;;;4103275;28;19921;-84
2022/06/30 05:57:13;;;;;;;;;;;19.50;70.10;;;;;;4117509;28;19918;-85
2022/06/30 05:59:34;;;;;;;;;;;19.60;69.90;;;;;;4108511;28;19918;-83
2022/06/30 06:01:55;;;;;;;;;;;19.60;68.70;;;;;;4111976;28;19973;-84
2022/06/30 06:04:16;;;;;;;;;;;19.70;68.80;;;;;;4105355;28;19914;-83
2022/06/30 06:06:37;;;;;;;;;;;19.60;67.30;;;;;;4114451;28;19919;-84
2022/06/30 06:08:58;;;;;;;;;;;19.60;67.30;;;;;;4111583;28;19921;-83
2022/06/30 06:11:19;;;;;;;;;;;19.70;67.40;;;;;;4111087;28;20152;-84
2022/06/30 06:13:39;;;;;;;;;;;19.80;67.40;;;;;;4111373;28;19926;-83
2022/06/30 06:16:00;;;;;;;;;;;19.80;67.30;;;;;;4115231;28;19953;-84
2022/06/30 06:18:21;;;;;;;;;;;19.90;67.20;;;;;;4113605;28;19925;-82
2022/06/30 06:20:42;;;;;;;;;;;19.90;66.60;;;;;;4104272;28;19914;-82
2022/06/30 06:23:03;;;;;;;;;;;19.90;66.10;;;;;;4116259;28;19981;-84
2022/06/30 06:25:24;;;;;;;;;;;19.90;65.50;;;;;;4103115;28;20147;-85
2022/06/30 06:29:05;;;;;;;;;;;20.00;65.90;;;;;;4098254;28;19921;-84
2022/06/30 06:30:27;;;;;;;;;;;20.10;65.90;;;;;;4111646;28;19937;-83
2022/06/30 06:32:48;;;;;;;;;;;20.10;65.10;;;;;;4095579;28;19918;-83
2022/06/30 06:35:09;;;;;;;;;;;20.10;63.30;;;;;;4107758;28;19964;-83
2022/06/30 06:37:30;;;;;;;;;;;20.10;64.00;;;;;;4099984;28;20139;-83
2022/06/30 06:39:51;;;;;;;;;;;20.20;64.30;;;;;;4111842;28;19936;-84
2022/06/30 06:42:12;;;;;;;;;;;20.20;65.20;;;;;;4090187;28;19910;-83
2022/06/30 06:44:32;;;;;;;;;;;20.30;64.10;;;;;;4094720;28;19918;-84
2022/06/30 06:46:53;;;;;;;;;;;20.30;63.50;;;;;;4096047;28;19941;-83
2022/06/30 06:49:14;;;;;;;;;;;20.40;63.80;;;;;;4107757;28;20099;-85
2022/06/30 06:51:35;;;;;;;;;;;20.40;63.90;;;;;;4109805;28;19914;-83
2022/06/30 06:53:57;;;;;;;;;;;20.40;62.30;;;;;;4111955;28;19922;-83
2022/06/30 06:56:18;;;;;;;;;;;20.40;62.10;;;;;;4108104;28;19934;-84
2022/06/30 06:58:39;;;;;;;;;;;20.40;60.80;;;;;;4109859;28;20643;-85
2022/06/30 07:01:00;;;;;;;;;;;20.30;61.00;;;;;;4109981;28;19917;-84
2022/06/30 07:03:21;;;;;;;;;;;20.30;61.30;;;;;;4097497;28;20607;-85
2022/06/30 07:05:43;;;;;;;;;;;20.40;62.10;;;;;;4106822;28;20608;-83
2022/06/30 07:08:04;;;;;;;;;;;20.50;62.30;;;;;;4095900;28;19915;-85
2022/06/30 07:10:25;;;;;;;;;;;20.60;62.40;;;;;;4093781;28;19910;-83
2022/06/30 07:12:46;;;;;;;;;;;20.60;62.60;;;;;;4110072;28;20501;-83
2022/06/30 07:15:09;;;;;;;;;;;20.70;61.70;;;;;;4101688;28;19917;-84
2022/06/30 07:17:35;;;;;;;;;;;20.70;61.00;;;;;;4117975;28;19918;-84
2022/06/30 07:19:56;;;;;;;;;;;20.80;60.10;;;;;;4120774;28;19964;-83
2022/06/30 07:22:17;;;;;;;;;;;20.80;59.40;;;;;;4117741;28;19921;-85
2022/06/30 07:24:39;;;;;;;;;;;20.90;59.60;;;;;;4113242;28;19914;-83
2022/06/30 07:27:00;;;;;;;;;;;20.90;59.90;;;;;;4116704;28;19910;-83
2022/06/30 07:29:22;;;;;;;;;;;21.00;59.50;;;;;;4116814;28;19918;-81
2022/06/30 07:31:43;;;;;;;;;;;21.00;58.80;;;;;;4117845;28;19917;-84
2022/06/30 07:34:05;;;;;;;;;;;21.00;58.30;;;;;;4102824;28;19949;-83
2022/06/30 07:36:26;;;;;;;;;;;21.00;58.00;;;;;;4115433;28;19918;-84
2022/06/30 07:38:49;;;;;;;;;;;21.10;58.80;;;;;;4104121;28;19949;-84
2022/06/30 07:41:10;;;;;;;;;;;21.10;57.40;;;;;;4116148;28;19926;-84
2022/06/30 07:43:31;;;;;;;;;;;21.20;56.70;;;;;;4123161;28;19945;-84
2022/06/30 07:45:53;;;;;;;;;;;21.10;56.50;;;;;;4103909;28;19914;-84
2022/06/30 07:48:14;;;;;;;;;;;21.10;57.30;;;;;;4104012;28;19978;-83
2022/06/30 07:50:35;;;;;;;;;;;21.00;56.40;;;;;;4118523;28;22902;-84
2022/06/30 07:52:56;;;;;;;;;;;21.20;57.20;;;;;;4107529;28;20268;-84
2022/06/30 07:55:17;;;;;;;;;;;21.30;57.30;;;;;;4110683;28;19966;-85
2022/06/30 07:57:41;;;;;;;;;;;21.30;57.70;;;;;;4108176;28;20027;-84
2022/06/30 08:00:05;;;;;;;;;;;21.40;57.80;;;;;;4100373;28;19914;-85
2022/06/30 08:02:26;;;;;;;;;;;21.50;56.80;;;;;;4105171;28;19910;-84
2022/06/30 08:04:47;;;;;;;;;;;21.50;57.30;;;;;;4097403;28;19917;-85
2022/06/30 08:07:09;;;;;;;;;;;21.60;57.10;;;;;;4111789;28;20295;-86
2022/06/30 08:09:30;;;;;;;;;;;21.70;57.50;;;;;;4109580;28;20833;-83
2022/06/30 08:11:53;;;;;;;;;;;21.80;56.40;;;;;;4115433;28;19921;-85
2022/06/30 08:14:14;;;;;;;;;;;21.70;55.10;;;;;;4109078;28;20529;-84
2022/06/30 08:16:35;;;;;;;;;;;21.90;54.90;;;;;;4117484;28;19981;-86
2022/06/30 08:18:56;;;;;;;;;;;21.90;54.60;;;;;;4109795;28;20306;-84
2022/06/30 08:21:18;;;;;;;;;;;21.90;54.20;;;;;;4115157;28;20347;-84
2022/06/30 08:23:40;;;;;;;;;;;21.90;54.80;;;;;;4118283;28;20399;-84
2022/06/30 08:26:01;;;;;;;;;;;22.00;54.80;;;;;;4118986;28;19914;-83
2022/06/30 08:28:22;;;;;;;;;;;22.10;55.10;;;;;;4121625;28;19918;-85
2022/06/30 08:30:44;;;;;;;;;;;22.10;55.10;;;;;;4113568;28;19931;-83
2022/06/30 08:33:06;;;;;;;;;;;22.20;55.40;;;;;;4109407;28;19944;-84
2022/06/30 08:35:26;;;;;;;;;;;22.30;54.40;;;;;;4112972;28;19914;-84
2022/06/30 08:37:47;;;;;;;;;;;22.10;52.60;;;;;;4097125;28;19981;-84
2022/06/30 08:42:49;;;;;;;;;;;22.20;54.60;;;;;;4111542;28;19949;-84
2022/06/30 08:45:16;;;;;;;;;;;22.10;54.40;;;;;;4110323;28;19914;-84
2022/06/30 08:47:38;;;;;;;;;;;22.30;53.80;;;;;;4110988;28;19909;-85
2022/06/30 08:49:59;;;;;;;;;;;22.30;53.80;;;;;;4096271;28;19918;-85
2022/06/30 08:52:20;;;;;;;;;;;22.30;54.30;;;;;;4113230;28;20227;-85
2022/06/30 08:54:41;;;;;;;;;;;22.40;54.70;;;;;;4104828;28;19915;-84
2022/06/30 08:57:05;;;;;;;;;;;22.50;54.60;;;;;;4100619;28;20022;-83
2022/06/30 08:59:27;;;;;;;;;;;22.50;51.90;;;;;;4112923;28;19941;-84
2022/06/30 09:01:48;;;;;;;;;;;22.50;51.80;;;;;;4094621;28;19906;-83
2022/06/30 09:04:12;;;;;;;;;;;22.50;51.10;;;;;;4112365;28;19925;-86
2022/06/30 09:06:34;;;;;;;;;;;22.50;50.50;;;;;;4110431;28;19924;-84
2022/06/30 09:08:55;;;;;;;;;;;22.50;51.00;;;;;;4115392;28;19958;-85
2022/06/30 09:11:16;;;;;;;;;;;22.50;51.40;;;;;;4123851;28;19947;-85
2022/06/30 09:13:41;;;;;;;;;;;22.50;50.60;;;;;;4124960;28;19983;-84
2022/06/30 09:16:02;;;;;;;;;;;22.60;50.50;;;;;;4095173;28;19914;-84
2022/06/30 09:18:27;;;;;;;;;;;22.60;51.00;;;;;;4096936;28;19982;-85
2022/06/30 09:20:48;;;;;;;;;;;22.50;50.40;;;;;;4112795;28;19910;-85
2022/06/30 09:23:23;;;;;;;;;;;22.50;50.70;;;;;;4115355;28;19910;-83
2022/06/30 09:25:46;;;;;;;;;;;22.60;51.70;;;;;;4114387;28;20439;-85
2022/06/30 09:28:07;;;;;;;;;;;22.60;52.00;;;;;;4097544;28;20036;-85
2022/06/30 09:30:28;;;;;;;;;;;22.60;51.40;;;;;;4110035;28;19932;-85
2022/06/30 09:33:05;;;;;;;;;;;22.50;50.30;;;;;;4094292;28;19911;-83
2022/06/30 09:35:27;;;;;;;;;;;22.70;51.80;;;;;;4116232;28;19910;-86
2022/06/30 09:37:58;;;;;;;;;;;22.60;52.00;;;;;;4093030;28;19984;-85
2022/06/30 09:40:27;;;;;;;;;;;22.70;50.10;;;;;;4096758;28;19910;-84
2022/06/30 09:42:48;;;;;;;;;;;22.80;51.10;;;;;;4118060;28;19906;-86
2022/06/30 09:45:12;;;;;;;;;;;22.80;50.50;;;;;;4109232;28;19925;-85
2022/06/30 09:47:33;;;;;;;;;;;22.90;50.90;;;;;;4115272;28;19917;-84
2022/06/30 09:49:54;;;;;;;;;;;22.90;50.50;;;;;;4101208;28;19921;-86
2022/06/30 09:52:15;;;;;;;;;;;23.00;50.40;;;;;;4117013;28;19914;-86
2022/06/30 09:54:36;;;;;;;;;;;23.00;50.70;;;;;;4094541;28;19972;-85
2022/06/30 09:57:04;;;;;;;;;;;23.10;51.20;;;;;;4105488;28;19917;-85
2022/06/30 09:59:25;;;;;;;;;;;23.10;48.80;;;;;;4113832;28;20453;-85
2022/06/30 10:01:53;;;;;;;;;;;23.20;50.10;;;;;;4111585;28;19925;-91
2022/06/30 10:04:17;;;;;;;;;;;23.20;49.30;;;;;;4116468;28;19941;-88
2022/06/30 10:06:38;;;;;;;;;;;23.30;49.80;;;;;;4112301;28;19910;-90
2022/06/30 10:08:59;;;;;;;;;;;23.30;48.00;;;;;;4112606;28;19914;-91
2022/06/30 10:11:20;;;;;;;;;;;23.20;47.90;;;;;;4117576;28;19914;-90
2022/06/30 10:13:43;;;;;;;;;;;23.10;47.70;;;;;;4115480;28;20002;-90
2022/06/30 10:16:04;;;;;;;;;;;23.10;48.40;;;;;;4116271;28;19913;-88
2022/06/30 10:18:26;;;;;;;;;;;23.20;49.10;;;;;;4090281;28;19922;-90
2022/06/30 10:20:48;;;;;;;;;;;23.20;50.30;;;;;;4106866;28;19910;-89
2022/06/30 10:23:10;;;;;;;;;;;23.20;49.00;;;;;;4093277;28;19982;-91
2022/06/30 10:25:32;;;;;;;;;;;23.30;50.00;;;;;;4126977;28;19914;-90
2022/06/30 10:27:53;;;;;;;;;;;23.40;49.80;;;;;;4106208;28;19922;-90
2022/06/30 10:30:15;;;;;;;;;;;23.30;49.00;;;;;;4114012;28;20009;-89
2022/06/30 10:32:54;;;;;;;;;;;23.50;50.00;;;;;;4106510;28;19910;-88
2022/06/30 10:35:21;;;;;;;;;;;23.50;47.60;;;;;;4117351;28;19916;-89
2022/06/30 10:37:49;;;;;;;;;;;23.50;47.70;;;;;;4115400;28;19914;-91
2022/06/30 10:40:34;;;;;;;;;;;23.50;47.20;;;;;;4109967;28;19912;-90
2022/06/30 10:42:56;;;;;;;;;;;23.50;46.90;;;;;;4113790;28;19910;-91
2022/06/30 10:45:26;;;;;;;;;;;23.50;47.30;;;;;;4117098;28;19938;-90
2022/06/30 10:47:57;;;;;;;;;;;23.50;46.90;;;;;;4105583;28;19910;-89
2022/06/30 10:50:31;;;;;;;;;;;23.60;46.30;;;;;;4094469;28;20378;-89
2022/06/30 10:52:52;;;;;;;;;;;23.60;46.10;;;;;;4111325;28;19938;-90
2022/06/30 10:55:13;;;;;;;;;;;23.60;47.20;;;;;;4092818;28;19910;-88
2022/06/30 10:58:00;;;;;;;;;;;23.60;47.00;;;;;;4129931;28;19921;-89
2022/06/30 11:00:40;;;;;;;;;;;23.60;44.90;;;;;;4111733;28;19923;-88
2022/06/30 11:03:01;;;;;;;;;;;23.60;43.10;;;;;;4098326;28;19910;-89
2022/06/30 11:05:24;;;;;;;;;;;23.60;45.30;;;;;;4102621;28;20014;-90
2022/06/30 11:07:45;;;;;;;;;;;23.60;44.80;;;;;;4111607;28;20436;-89
2022/06/30 11:10:15;;;;;;;;;;;23.60;44.10;;;;;;4101331;28;19918;-82
2022/06/30 11:12:38;;;;;;;;;;;23.60;45.40;;;;;;4079858;28;19910;-78
2022/06/30 11:14:59;;;;;;;;;;;23.60;45.40;;;;;;4107857;28;19942;-78
2022/06/30 11:17:22;;;;;;;;;;;23.60;45.50;;;;;;4113362;28;20295;-79
2022/06/30 11:19:42;;;;;;;;;;;23.60;43.60;;;;;;4107819;28;19910;-79
2022/06/30 11:22:05;;;;;;;;;;;23.60;43.10;;;;;;4091087;28;19918;-78
2022/06/30 11:24:27;;;;;;;;;;;23.60;43.20;;;;;;4095180;28;19928;-78
2022/06/30 11:29:29;;;;;;;;;;;23.70;43.00;;;;;;4107699;28;20393;-78
2022/06/30 11:31:50;;;;;;;;;;;23.60;42.90;;;;;;4101318;28;19921;-79
2022/06/30 11:34:17;;;;;;;;;;;23.50;41.10;;;;;;4095617;28;19918;-78
2022/06/30 11:36:39;;;;;;;;;;;23.50;42.20;;;;;;4098562;28;19910;-78
2022/06/30 11:39:03;;;;;;;;;;;23.60;42.90;;;;;;4087848;28;20068;-78
2022/06/30 11:44:04;;;;;;;;;;;23.50;43.10;;;;;;4107793;28;19914;-78
2022/06/30 11:46:25;;;;;;;;;;;23.40;43.40;;;;;;4094360;28;19915;-78
2022/06/30 11:48:47;;;;;;;;;;;23.40;45.00;;;;;;4109798;28;19973;-79
2022/06/30 11:51:11;;;;;;;;;;;23.50;44.20;;;;;;4106823;28;19910;-78
2022/06/30 11:53:32;;;;;;;;;;;23.40;43.50;;;;;;4094488;28;19917;-78
2022/06/30 11:55:53;;;;;;;;;;;23.30;43.40;;;;;;4113414;28;19918;-77
2022/06/30 11:58:14;;;;;;;;;;;23.30;42.60;;;;;;4092651;28;20023;-78
2022/06/30 12:00:35;;;;;;;;;;;23.40;43.10;;;;;;4102402;28;19914;-78
2022/06/30 12:02:55;;;;;;;;;;;23.30;42.60;;;;;;4109489;28;21987;-79
2022/06/30 12:05:18;;;;;;;;;;;23.30;42.00;;;;;;4105752;28;20005;-79
2022/06/30 12:07:40;;;;;;;;;;;23.30;41.60;;;;;;4109628;28;19910;-79
2022/06/30 12:10:00;;;;;;;;;;;23.30;42.50;;;;;;4099461;28;19970;-79
2022/06/30 12:12:26;;;;;;;;;;;23.30;43.30;;;;;;4103504;28;19949;-77
2022/06/30 12:14:48;;;;;;;;;;;23.40;42.70;;;;;;4100471;28;19916;-78
2022/06/30 12:17:10;;;;;;;;;;;23.30;41.60;;;;;;4092694;28;19919;-79
2022/06/30 12:19:31;;;;;;;;;;;23.30;41.60;;;;;;4109617;28;20168;-78
2022/06/30 12:21:53;;;;;;;;;;;23.40;41.50;;;;;;4103156;28;19914;-76
2022/06/30 12:24:14;;;;;;;;;;;23.30;40.50;;;;;;4094763;28;19918;-78
2022/06/30 12:26:35;;;;;;;;;;;23.20;40.40;;;;;;4103524;28;19921;-78
2022/06/30 12:28:56;;;;;;;;;;;23.30;39.90;;;;;;4102130;28;20012;-78
2022/06/30 12:31:27;;;;;;;;;;;23.30;40.10;;;;;;4104351;28;20342;-78
2022/06/30 12:33:48;;;;;;;;;;;23.20;40.90;;;;;;4095745;28;19914;-77
2022/06/30 12:36:13;;;;;;;;;;;23.20;39.90;;;;;;4081888;28;19918;-78
2022/06/30 12:38:35;;;;;;;;;;;23.30;40.20;;;;;;4094190;28;19913;-77
2022/06/30 12:40:56;;;;;;;;;;;23.30;39.80;;;;;;4084289;28;19919;-78
2022/06/30 12:43:18;;;;;;;;;;;23.30;40.60;;;;;;4096226;28;20060;-78
2022/06/30 12:45:45;;;;;;;;;;;23.30;40.30;;;;;;4098633;28;19969;-77
2022/06/30 12:48:10;;;;;;;;;;;23.40;41.80;;;;;;4096281;28;20315;-79
2022/06/30 12:50:35;;;;;;;;;;;23.40;41.70;;;;;;4105902;28;20469;-78
2022/06/30 12:53:14;;;;;;;;;;;23.40;41.50;;;;;;4101958;28;19917;-77
2022/06/30 12:55:54;;;;;;;;;;;23.50;43.10;;;;;;4084915;28;20057;-76
2022/06/30 12:58:15;;;;;;;;;;;23.50;41.90;;;;;;4102996;28;19989;-77
2022/06/30 13:00:45;;;;;;;;;;;23.50;42.20;;;;;;4099517;28;19961;-77
2022/06/30 13:03:06;;;;;;;;;;;23.50;41.10;;;;;;4106249;28;19933;-78
2022/06/30 13:05:31;;;;;;;;;;;23.50;41.40;;;;;;4102926;28;19969;-78
2022/06/30 13:07:55;;;;;;;;;;;23.50;42.00;;;;;;4083833;28;19920;-77
2022/06/30 13:11:04;;;;;;;;;;;23.60;44.60;;;;;;4082994;28;19918;-78
2022/06/30 13:12:56;;;;;;;;;;;23.60;44.50;;;;;;4106468;28;19957;-79
2022/06/30 13:15:20;;;;;;;;;;;23.50;44.30;;;;;;4109627;28;19918;-77
2022/06/30 13:17:41;;;;;;;;;;;23.50;44.00;;;;;;4108213;28;20033;-78
2022/06/30 13:20:02;;;;;;;;;;;23.50;43.60;;;;;;4107450;28;20412;-79
2022/06/30 13:22:23;;;;;;;;;;;23.30;43.10;;;;;;4096489;28;19918;-79
2022/06/30 13:24:44;;;;;;;;;;;23.30;44.10;;;;;;4108684;28;19918;-78
2022/06/30 13:27:05;;;;;;;;;;;23.30;43.70;;;;;;4106636;28;20701;-78
2022/06/30 13:29:26;;;;;;;;;;;23.20;43.80;;;;;;4110951;28;19921;-77
2022/06/30 13:31:47;;;;;;;;;;;23.20;44.80;;;;;;4104076;28;19944;-78
2022/06/30 13:34:11;;;;;;;;;;;23.20;45.80;;;;;;4110271;28;19914;-79
2022/06/30 13:36:33;;;;;;;;;;;23.20;45.20;;;;;;4106979;28;19924;-79
2022/06/30 13:38:53;;;;;;;;;;;23.20;44.40;;;;;;4105301;28;20018;-78
2022/06/30 13:41:15;;;;;;;;;;;23.20;45.20;;;;;;4111755;28;19910;-78
2022/06/30 13:43:36;;;;;;;;;;;23.20;45.00;;;;;;4107283;28;19920;-78
2022/06/30 13:45:57;;;;;;;;;;;23.20;45.60;;;;;;4106764;28;20049;-79
2022/06/30 13:48:18;;;;;;;;;;;23.20;44.90;;;;;;4108935;28;19998;-78
2022/06/30 13:50:41;;;;;;;;;;;23.20;43.60;;;;;;4103749;28;19921;-78
2022/06/30 13:53:03;;;;;;;;;;;23.10;42.50;;;;;;4101531;28;20049;-78
2022/06/30 13:55:24;;;;;;;;;;;23.30;43.40;;;;;;4090422;28;19982;-78
2022/06/30 13:57:45;;;;;;;;;;;23.30;41.70;;;;;;4084567;28;20123;-78
2022/06/30 14:00:06;;;;;;;;;;;23.40;43.40;;;;;;4104105;28;19945;-80
2022/06/30 14:02:27;;;;;;;;;;;23.40;42.60;;;;;;4097229;28;19946;-78